Language selection

Features

My Weather Profile Weather Topics  | 

Queen Charlotte Sound: Past 24 Hour Conditions

 

West Sea Otter - 46204

08:00 AM PST 13 December 2019Buoy position: 51.23N 128.46W
Disclaimer

This table is a summary of hourly weather conditions for the past 24 hours.
Please note that these observations might not always be representative of weather conditions over their associated marine area.

Date / Time
(PST)
Wind(knots) Wave height(m) Wave period(s) Pressure(kPa) Air tempC) Water tempC)
13 December 2019
8:00 NW 4 gust 8 4.7 16.0 101.7 9 10
7:00 W 4 gust 8 4.9 15.0 101.6 9 10
6:00 W 4 gust 8 4.5 16.0 101.6 9 10
5:00 WSW 4 gust 8 4.3 14.0 101.6 9 9
4:00 WSW 6 gust 8 4.1 14.0 101.6 9 10
3:00 WSW 6 gust 8 4.2 14.0 101.5 9 10
2:00 WSW 8 gust 12 4.5 16.0 101.5 9 9
1:00 SW 6 gust 10 4.5 15.0 101.4 9 9
0:00 WSW 8 gust 12 4.7 14.0 101.4 9 9
12 December 2019
23:00 W 8 gust 12 5.0 14.0 101.3 9 9
22:00 WSW 6 gust 10 4.7 15.0 101.2 9 10
21:00 SSE 6 gust 10 5.2 14.0 101.2 8 9
20:00 ESE 6 gust 10 5.4 14.0 101.1 8 9
19:00 SW 4 gust 8 5.0 15.0 101.1 3 9
18:00 SSW 6 gust 8 4.6 14.0 101.0 2 10
17:00 S 4 gust 8 4.1 14.0 100.9 8 10
16:00 SW 6 gust 8 4.0 16.0 100.8 8 10
15:00 WSW 10 gust 13 4.9 15.0 100.7 8 9
14:00 WSW 8 gust 12 4.6 15.0 100.6 8 10
13:00 SW 12 gust 16 4.1 16.0 100.5 9 10
12:00 S 13 gust 17 4.3 15.0 100.5 9 10
11:00 SSW 13 gust 17 4.9 16.0 100.4 10 9
10:00 S 12 gust 13 4.6 16.0 100.4 10 9
9:00 SSW 13 gust 17 4.5 16.0 100.3 9 9
8:00 SSW 13 gust 19 4.7 16.0 100.2 10 9

Zoom-in to make a selection

Map of Pacific - North Coast marine weather areas Middle Nomad - 46004 South Nomad - 46036 Dixon Entrance Central - 46145 South Moresby - 46147 Nanakwa Shoal - 46181 North Hecate Strait - 46183 North Nomad - 46184 South Hecate Strait - 46185 West Sea Otter - 46204 West Dixon Entrance - 46205 East Dellwood - 46207 West Moresby - 46208 Sartine Island Cape St.James Kindakun Rocks Langara Island Masset Municipal Airport Rose Spit Sandspit Airport Bella Bella Airport Bella Coola Airport Bonilla Island Cathedral Point Cumshewa Island Grey Islet Holland Rock Lucy Islands Lightstation Prince Rupert Airport
Legend:
buoy Buoy
land station Land Station

Pacific - North Coast Area

Another Region

What we are doing

Date modified: